createdAt,value
2022-11-07T00:01:10.631Z,10.11
2022-11-07T00:03:37.481Z,10.06
2022-11-07T00:06:04.343Z,10.08
2022-11-07T00:08:33.570Z,10.04
2022-11-07T00:11:01.561Z,10.03
2022-11-07T00:13:29.430Z,9.98
2022-11-07T00:16:04.605Z,9.91
2022-11-07T00:18:31.303Z,9.87
2022-11-07T00:21:02.142Z,9.83
2022-11-07T00:23:28.591Z,9.81
2022-11-07T00:25:54.991Z,9.81
2022-11-07T00:28:21.410Z,9.79
2022-11-07T00:30:47.876Z,9.81
2022-11-07T00:33:14.613Z,9.85
2022-11-07T00:35:42.618Z,9.87
2022-11-07T00:38:09.091Z,9.86
2022-11-07T00:40:35.504Z,9.90
2022-11-07T00:43:02.024Z,9.93
2022-11-07T00:45:28.360Z,9.96
2022-11-07T00:47:54.733Z,10.01
2022-11-07T00:50:21.121Z,10.02
2022-11-07T00:52:47.480Z,10.01
2022-11-07T00:55:13.923Z,10.01
2022-11-07T00:57:40.315Z,10.00
2022-11-07T01:00:07.459Z,10.01
2022-11-07T01:02:33.885Z,10.00
2022-11-07T01:05:12.396Z,10.00
2022-11-07T01:07:39.604Z,9.98
2022-11-07T01:10:07.160Z,9.98
2022-11-07T01:12:41.660Z,9.96
2022-11-07T01:15:08.634Z,9.92
2022-11-07T01:17:34.985Z,9.90
2022-11-07T01:20:01.443Z,9.88
2022-11-07T01:22:27.806Z,9.85
2022-11-07T01:24:54.224Z,9.83
2022-11-07T01:27:20.550Z,9.80
2022-11-07T01:29:46.959Z,9.80
2022-11-07T01:32:13.333Z,9.79
2022-11-07T01:34:39.696Z,9.78
2022-11-07T01:37:06.113Z,9.79
2022-11-07T01:39:32.619Z,9.78
2022-11-07T01:41:59.306Z,9.78
2022-11-07T01:44:25.630Z,9.73
2022-11-07T01:46:56.215Z,9.69
2022-11-07T01:49:32.317Z,9.68
2022-11-07T01:52:04.134Z,9.65
2022-11-07T01:54:56.719Z,9.62
2022-11-07T01:57:37.216Z,9.58
2022-11-07T02:00:07.474Z,9.56
2022-11-07T02:02:34.770Z,9.54
2022-11-07T02:05:02.957Z,9.52
2022-11-07T02:07:30.048Z,9.51
2022-11-07T02:09:56.469Z,9.53
2022-11-07T02:12:25.162Z,9.55
2022-11-07T02:14:51.772Z,9.55
2022-11-07T02:17:18.753Z,9.52
2022-11-07T02:19:56.517Z,9.47
2022-11-07T02:22:53.848Z,9.43
2022-11-07T02:25:21.268Z,9.42
2022-11-07T02:27:51.304Z,9.43
2022-11-07T02:30:27.880Z,9.39
2022-11-07T02:32:54.301Z,9.39
2022-11-07T02:35:36.017Z,9.39
2022-11-07T02:38:19.673Z,9.41
2022-11-07T02:40:51.075Z,9.45
2022-11-07T02:43:23.613Z,9.48
2022-11-07T02:45:51.215Z,9.53
2022-11-07T02:48:18.138Z,9.55
2022-11-07T02:50:44.558Z,9.60
2022-11-07T02:53:10.969Z,9.65
2022-11-07T02:55:37.563Z,9.69
2022-11-07T02:58:04.317Z,9.73
2022-11-07T03:00:31.120Z,9.77
2022-11-07T03:02:57.671Z,9.79
2022-11-07T03:05:24.037Z,9.84
2022-11-07T03:07:50.385Z,9.89
2022-11-07T03:10:17.528Z,9.91
2022-11-07T03:12:43.922Z,9.91
2022-11-07T03:15:11.497Z,9.91
2022-11-07T03:17:37.898Z,9.90
2022-11-07T03:20:04.749Z,9.91
2022-11-07T03:22:31.363Z,9.94
2022-11-07T03:24:57.719Z,9.97
2022-11-07T03:27:24.140Z,9.98
2022-11-07T03:29:50.537Z,10.00
2022-11-07T03:32:17.059Z,10.01
2022-11-07T03:34:43.401Z,10.02
2022-11-07T03:37:09.758Z,10.05
2022-11-07T03:39:36.093Z,10.08
2022-11-07T03:42:02.511Z,10.12
2022-11-07T03:44:28.837Z,10.13
2022-11-07T03:46:55.189Z,10.13
2022-11-07T03:49:21.530Z,10.14
2022-11-07T03:51:47.942Z,10.17
2022-11-07T03:54:14.333Z,10.21
2022-11-07T03:56:40.744Z,10.25
2022-11-07T03:59:07.100Z,10.30
2022-11-07T04:01:33.759Z,10.33
2022-11-07T04:04:00.204Z,10.41
2022-11-07T04:06:26.547Z,10.47
2022-11-07T04:08:53.003Z,10.50
2022-11-07T04:11:37.866Z,10.49
2022-11-07T04:14:22.621Z,10.50
2022-11-07T04:17:07.333Z,10.55
2022-11-07T04:19:33.730Z,10.55
2022-11-07T04:22:00.103Z,10.58
2022-11-07T04:24:26.456Z,10.61
2022-11-07T04:27:11.476Z,10.60
2022-11-07T04:29:37.841Z,10.58
2022-11-07T04:32:04.378Z,10.57
2022-11-07T04:34:30.897Z,10.53
2022-11-07T04:36:57.227Z,10.48
2022-11-07T04:39:23.684Z,10.45
2022-11-07T04:41:50.098Z,10.42
2022-11-07T04:44:16.468Z,10.41
2022-11-07T04:46:42.853Z,10.38
2022-11-07T04:49:09.219Z,10.36
2022-11-07T04:51:41.339Z,10.33
2022-11-07T04:54:11.724Z,10.29
2022-11-07T04:56:38.306Z,10.26
2022-11-07T04:59:04.705Z,10.22
2022-11-07T05:01:31.238Z,10.21
2022-11-07T05:03:58.003Z,10.15
2022-11-07T05:06:24.977Z,10.13
2022-11-07T05:08:51.425Z,10.09
2022-11-07T05:11:17.757Z,10.03
2022-11-07T05:13:44.104Z,10.00
2022-11-07T05:16:19.339Z,10.00
2022-11-07T05:18:46.210Z,9.96
2022-11-07T05:21:12.734Z,9.89
2022-11-07T05:23:39.199Z,9.81
2022-11-07T05:26:05.673Z,9.75
2022-11-07T05:28:38.705Z,9.72
2022-11-07T05:31:07.768Z,9.68
2022-11-07T05:33:34.655Z,9.69
2022-11-07T05:36:14.408Z,9.68
2022-11-07T05:38:42.567Z,9.64
2022-11-07T05:41:09.266Z,9.60
2022-11-07T05:43:37.163Z,9.58
2022-11-07T05:46:03.632Z,9.56
2022-11-07T05:48:30.545Z,9.52
2022-11-07T05:50:58.112Z,9.52
2022-11-07T05:53:25.972Z,9.52
2022-11-07T05:55:53.389Z,9.52
2022-11-07T05:58:21.614Z,9.52
2022-11-07T06:00:48.816Z,9.54
2022-11-07T06:03:15.970Z,9.53
2022-11-07T06:05:43.249Z,9.55
2022-11-07T06:08:12.158Z,9.55
2022-11-07T06:10:39.730Z,9.57
2022-11-07T06:13:08.261Z,9.58
2022-11-07T06:15:36.630Z,9.59
2022-11-07T06:18:05.903Z,9.58
2022-11-07T06:20:33.556Z,9.57
2022-11-07T06:23:01.464Z,9.58
2022-11-07T06:25:28.787Z,9.60
2022-11-07T06:28:04.142Z,9.60
2022-11-07T06:30:30.913Z,9.60
2022-11-07T06:33:04.816Z,9.63
2022-11-07T06:35:32.163Z,9.67
2022-11-07T06:38:03.413Z,9.69
2022-11-07T06:40:30.127Z,9.72
2022-11-07T06:42:56.473Z,9.75
2022-11-07T06:45:22.852Z,9.79
2022-11-07T06:47:49.261Z,9.83
2022-11-07T06:50:15.599Z,9.86
2022-11-07T06:52:41.917Z,9.89
2022-11-07T06:55:08.614Z,9.91
2022-11-07T06:57:34.989Z,9.93
2022-11-07T07:00:01.512Z,9.96
2022-11-07T07:02:52.356Z,10.00
2022-11-07T07:05:19.938Z,10.00
2022-11-07T07:07:47.529Z,10.04
2022-11-07T07:10:14.006Z,10.07
2022-11-07T07:15:20.904Z,10.13
2022-11-07T07:17:47.250Z,10.18
2022-11-07T07:20:13.596Z,10.24
2022-11-07T07:22:40.382Z,10.26
2022-11-07T07:25:07.490Z,10.26
2022-11-07T07:27:33.873Z,10.28
2022-11-07T07:30:00.258Z,10.32
2022-11-07T07:32:26.925Z,10.36
2022-11-07T07:34:53.284Z,10.37
2022-11-07T07:37:19.675Z,10.40
2022-11-07T07:39:46.048Z,10.43
2022-11-07T07:42:12.411Z,10.46
2022-11-07T07:44:38.831Z,10.50
2022-11-07T07:47:10.868Z,10.54
2022-11-07T07:49:37.954Z,10.58
2022-11-07T07:52:04.647Z,10.66
2022-11-07T07:54:30.998Z,10.71
2022-11-07T07:56:57.391Z,10.77
2022-11-07T07:59:23.764Z,10.83
2022-11-07T08:01:56.260Z,10.92
2022-11-07T08:04:23.419Z,10.99
2022-11-07T08:06:49.831Z,11.03
2022-11-07T08:09:16.166Z,11.12
2022-11-07T08:11:42.550Z,11.15
2022-11-07T08:14:08.901Z,11.17
2022-11-07T08:16:35.275Z,11.21
2022-11-07T08:19:01.631Z,11.24
2022-11-07T08:21:28.038Z,11.27
2022-11-07T08:23:55.150Z,11.32
2022-11-07T08:26:21.501Z,11.35
2022-11-07T08:28:47.924Z,11.34
2022-11-07T08:31:14.730Z,11.35
2022-11-07T08:33:41.312Z,11.34
2022-11-07T08:36:08.047Z,11.31
2022-11-07T08:38:35.767Z,11.33
2022-11-07T08:41:03.268Z,11.31
2022-11-07T08:43:29.719Z,11.33
2022-11-07T08:45:56.209Z,11.33
2022-11-07T08:48:23.642Z,11.38
2022-11-07T08:50:54.590Z,11.43
2022-11-07T08:53:21.535Z,11.49
2022-11-07T08:55:48.086Z,11.56
2022-11-07T08:58:15.101Z,11.63
2022-11-07T09:00:41.728Z,11.68
2022-11-07T09:03:31.212Z,11.74
2022-11-07T09:05:56.842Z,11.79
2022-11-07T09:08:23.398Z,11.84
2022-11-07T09:10:49.829Z,11.86
2022-11-07T09:13:16.458Z,11.88
2022-11-07T09:15:49.373Z,11.88
2022-11-07T09:18:17.306Z,11.92
2022-11-07T09:20:43.651Z,11.94
2022-11-07T09:23:10.012Z,11.97
2022-11-07T09:25:36.698Z,12.01
2022-11-07T09:28:03.703Z,12.05
2022-11-07T09:30:30.384Z,12.11
2022-11-07T09:32:57.026Z,12.16
2022-11-07T09:35:23.575Z,12.19
2022-11-07T09:37:50.930Z,12.23
2022-11-07T09:40:29.311Z,12.23
2022-11-07T09:43:23.771Z,12.25
2022-11-07T09:45:56.625Z,12.28
2022-11-07T09:48:26.030Z,12.31
2022-11-07T09:50:52.795Z,12.34
2022-11-07T09:53:41.691Z,12.35
2022-11-07T09:56:12.730Z,12.38
2022-11-07T09:58:44.326Z,12.42
2022-11-07T10:01:17.228Z,12.45
2022-11-07T10:04:10.209Z,12.48
2022-11-07T10:06:41.704Z,12.48
2022-11-07T10:09:27.075Z,12.52
2022-11-07T10:12:12.948Z,12.60
2022-11-07T10:14:48.354Z,12.65
2022-11-07T10:17:39.740Z,12.71
2022-11-07T10:20:15.094Z,12.73
2022-11-07T10:22:56.832Z,12.74
2022-11-07T10:26:08.259Z,12.74
2022-11-07T10:28:47.475Z,12.80
2022-11-07T10:31:15.164Z,12.85
2022-11-07T10:33:59.934Z,12.92
2022-11-07T10:36:31.453Z,13.04
2022-11-07T10:38:58.002Z,13.11
2022-11-07T10:41:26.658Z,13.15
2022-11-07T10:43:58.268Z,13.23
2022-11-07T10:46:34.518Z,13.28
2022-11-07T10:49:02.743Z,13.33
2022-11-07T10:51:34.384Z,13.37
2022-11-07T10:54:00.810Z,13.41
2022-11-07T10:56:27.349Z,13.45
2022-11-07T10:58:53.759Z,13.47
2022-11-07T11:01:25.879Z,13.52
2022-11-07T11:03:53.560Z,13.57
2022-11-07T11:06:30.445Z,13.62
2022-11-07T11:08:58.130Z,13.69
2022-11-07T11:11:31.383Z,13.75
2022-11-07T11:14:12.043Z,13.76
2022-11-07T11:16:41.392Z,13.77
2022-11-07T11:19:21.131Z,13.90
2022-11-07T11:21:50.723Z,14.09
2022-11-07T11:24:29.498Z,14.50
2022-11-07T11:26:59.779Z,14.90
2022-11-07T11:29:53.045Z,15.15
2022-11-07T11:32:30.147Z,15.22
2022-11-07T11:35:08.103Z,15.15
2022-11-07T11:37:38.695Z,15.08
2022-11-07T11:40:13.158Z,15.02
2022-11-07T11:43:00.652Z,15.01
2022-11-07T11:45:39.272Z,14.90
2022-11-07T11:48:19.319Z,14.84
2022-11-07T11:50:52.383Z,14.70
2022-11-07T11:53:21.947Z,14.52
2022-11-07T11:56:06.493Z,14.40
2022-11-07T11:58:54.669Z,14.39
2022-11-07T12:01:49.038Z,14.37
2022-11-07T12:05:01.903Z,14.36
2022-11-07T12:07:46.224Z,14.42
2022-11-07T12:10:21.586Z,14.45
2022-11-07T12:13:03.196Z,14.54
2022-11-07T12:15:49.557Z,14.62
2022-11-07T12:18:31.932Z,14.65
2022-11-07T12:21:17.011Z,14.67
2022-11-07T12:24:02.423Z,14.68
2022-11-07T12:26:49.289Z,14.67
2022-11-07T12:29:45.925Z,14.65
2022-11-07T12:32:28.718Z,14.64
2022-11-07T12:35:24.319Z,14.63
2022-11-07T12:38:11.389Z,14.64
2022-11-07T12:41:20.542Z,14.65
2022-11-07T12:44:12.780Z,14.64
2022-11-07T12:46:52.029Z,14.66
2022-11-07T12:49:48.339Z,14.65
2022-11-07T12:52:27.507Z,14.68
2022-11-07T12:55:25.544Z,14.71
2022-11-07T12:57:56.133Z,14.72
2022-11-07T13:00:30.275Z,14.70
2022-11-07T13:03:03.339Z,14.67
2022-11-07T13:06:00.705Z,14.67
2022-11-07T13:08:37.244Z,14.65
2022-11-07T13:11:18.574Z,14.64
2022-11-07T13:13:54.482Z,14.85
2022-11-07T13:16:25.355Z,14.87
2022-11-07T13:18:51.803Z,14.74
2022-11-07T13:21:18.174Z,14.64
2022-11-07T13:23:45.612Z,14.58
2022-11-07T13:26:32.899Z,14.53
2022-11-07T13:29:01.146Z,14.50
2022-11-07T13:31:34.491Z,14.57
2022-11-07T13:34:19.213Z,14.62
2022-11-07T13:36:48.350Z,14.60
2022-11-07T13:39:16.559Z,14.58
2022-11-07T13:41:46.279Z,14.52
2022-11-07T13:44:37.296Z,14.46
2022-11-07T13:47:12.039Z,14.42
2022-11-07T13:49:45.618Z,14.41
2022-11-07T13:52:48.299Z,14.40
2022-11-07T13:55:22.200Z,14.38
2022-11-07T13:57:55.578Z,14.36
2022-11-07T14:00:22.157Z,14.34
2022-11-07T14:02:57.370Z,14.31
2022-11-07T14:05:27.056Z,14.31
2022-11-07T14:08:02.491Z,14.31
2022-11-07T14:10:33.792Z,14.32
2022-11-07T14:13:08.441Z,14.32
2022-11-07T14:15:43.061Z,14.35
2022-11-07T14:18:18.146Z,14.34
2022-11-07T14:20:50.557Z,14.33
2022-11-07T14:23:21.370Z,14.31
2022-11-07T14:25:57.549Z,14.27
2022-11-07T14:28:24.888Z,14.25
2022-11-07T14:30:52.440Z,14.21
2022-11-07T14:33:21.474Z,14.19
2022-11-07T14:35:50.493Z,14.14
2022-11-07T14:38:22.400Z,14.13
2022-11-07T14:40:50.230Z,14.11
2022-11-07T14:43:20.661Z,14.10
2022-11-07T14:48:35.919Z,14.08
2022-11-07T14:51:03.446Z,14.08
2022-11-07T14:53:42.395Z,14.06
2022-11-07T14:56:13.125Z,14.02
2022-11-07T14:58:39.656Z,14.00
2022-11-07T15:01:06.062Z,13.95
2022-11-07T15:03:35.552Z,13.91
2022-11-07T15:06:02.567Z,13.87
2022-11-07T15:08:34.631Z,13.87
2022-11-07T15:11:20.062Z,13.86
2022-11-07T15:13:49.653Z,13.86
2022-11-07T15:16:18.847Z,13.87
2022-11-07T15:18:48.621Z,13.83
2022-11-07T15:21:31.057Z,13.82
2022-11-07T15:23:59.262Z,13.76
2022-11-07T15:26:32.022Z,13.72
2022-11-07T15:29:14.905Z,13.66
2022-11-07T15:31:48.306Z,13.61
2022-11-07T15:34:33.678Z,13.55
2022-11-07T15:37:16.275Z,13.50
2022-11-07T15:39:42.647Z,13.47
2022-11-07T15:42:09.023Z,13.46
2022-11-07T15:44:36.092Z,13.44
2022-11-07T15:47:03.991Z,13.42
2022-11-07T15:49:31.831Z,13.41
2022-11-07T15:51:58.185Z,13.43
2022-11-07T15:54:24.561Z,13.45
2022-11-07T15:56:54.554Z,13.44
2022-11-07T15:59:28.000Z,13.42
2022-11-07T16:01:54.561Z,13.40
2022-11-07T16:04:21.044Z,13.36
2022-11-07T16:06:47.655Z,13.31
2022-11-07T16:09:18.085Z,13.26
2022-11-07T16:11:45.316Z,13.21
2022-11-07T16:14:42.179Z,13.18
2022-11-07T16:17:03.669Z,13.11
2022-11-07T16:19:31.026Z,13.08
2022-11-07T16:21:57.417Z,13.02
2022-11-07T16:24:23.826Z,12.93
2022-11-07T16:26:51.696Z,12.88
2022-11-07T16:29:18.246Z,12.83
2022-11-07T16:31:44.682Z,12.77
2022-11-07T16:34:11.766Z,12.72
2022-11-07T16:36:39.655Z,12.67
2022-11-07T16:39:10.074Z,12.60
2022-11-07T16:41:36.452Z,12.53
2022-11-07T16:44:03.061Z,12.49
2022-11-07T16:46:35.745Z,12.43
2022-11-07T16:49:25.242Z,12.38
2022-11-07T16:51:51.602Z,12.36
2022-11-07T16:54:18.168Z,12.39
2022-11-07T16:56:47.159Z,12.40
2022-11-07T16:59:22.302Z,12.41
2022-11-07T17:01:49.911Z,12.39
2022-11-07T17:04:16.914Z,12.37
2022-11-07T17:06:47.918Z,12.35
2022-11-07T17:09:16.705Z,12.30
2022-11-07T17:11:44.477Z,12.26
2022-11-07T17:14:11.213Z,12.22
2022-11-07T17:16:38.333Z,12.19
2022-11-07T17:19:05.705Z,12.14
2022-11-07T17:21:34.397Z,12.10
2022-11-07T17:24:01.376Z,12.01
2022-11-07T17:26:30.988Z,11.90
2022-11-07T17:28:58.939Z,11.79
2022-11-07T17:31:25.878Z,11.73
2022-11-07T17:33:52.272Z,11.68
2022-11-07T17:36:35.250Z,11.61
2022-11-07T17:39:08.004Z,11.54
2022-11-07T17:41:34.415Z,11.48
2022-11-07T17:44:00.855Z,11.43
2022-11-07T17:46:30.367Z,11.41
2022-11-07T17:48:58.868Z,11.37
2022-11-07T17:51:28.118Z,11.34
2022-11-07T17:53:56.138Z,11.31
2022-11-07T17:56:25.067Z,11.26
2022-11-07T17:58:58.123Z,11.23
2022-11-07T18:01:30.607Z,11.21
2022-11-07T18:03:57.201Z,11.20
2022-11-07T18:06:25.252Z,11.16
2022-11-07T18:08:56.656Z,11.15
2022-11-07T18:11:26.551Z,11.14
2022-11-07T18:13:54.652Z,11.11
2022-11-07T18:16:27.403Z,11.12
2022-11-07T18:18:54.244Z,11.12
2022-11-07T18:21:20.819Z,11.12
2022-11-07T18:23:47.309Z,11.14
2022-11-07T18:26:25.200Z,11.14
2022-11-07T18:28:56.353Z,11.18
2022-11-07T18:31:24.177Z,11.18
2022-11-07T18:33:53.390Z,11.18
2022-11-07T18:36:21.254Z,11.17
2022-11-07T18:38:47.677Z,11.17
2022-11-07T18:41:18.070Z,11.18
2022-11-07T18:43:44.480Z,11.18
2022-11-07T18:46:19.038Z,11.17
2022-11-07T18:48:46.025Z,11.16
2022-11-07T18:51:19.408Z,11.14
2022-11-07T18:53:45.901Z,11.11
2022-11-07T18:56:13.206Z,11.07
2022-11-07T18:58:42.408Z,11.04
2022-11-07T19:01:15.256Z,11.02
2022-11-07T19:03:42.200Z,11.03
2022-11-07T19:06:11.059Z,11.07
2022-11-07T19:08:39.927Z,11.06
2022-11-07T19:11:09.132Z,11.08
2022-11-07T19:13:39.459Z,11.08
2022-11-07T19:16:08.450Z,11.09
2022-11-07T19:18:35.307Z,11.07
2022-11-07T19:21:03.583Z,11.06
2022-11-07T19:23:30.913Z,11.03
2022-11-07T19:25:57.850Z,11.06
2022-11-07T19:28:24.277Z,11.06
2022-11-07T19:30:50.757Z,11.08
2022-11-07T19:33:17.637Z,11.10
2022-11-07T19:35:44.273Z,11.08
2022-11-07T19:38:12.848Z,11.10
2022-11-07T19:40:40.050Z,11.11
2022-11-07T19:43:09.315Z,11.11
2022-11-07T19:45:40.727Z,11.12
2022-11-07T19:48:07.186Z,11.10
2022-11-07T19:50:33.581Z,11.03
2022-11-07T19:53:00.217Z,10.95
2022-11-07T19:55:26.643Z,10.87
2022-11-07T19:57:53.071Z,10.84
2022-11-07T20:00:19.500Z,10.78
2022-11-07T20:02:49.137Z,10.74
2022-11-07T20:05:23.892Z,10.68
2022-11-07T20:07:55.303Z,10.63
2022-11-07T20:10:23.139Z,10.59
2022-11-07T20:12:49.981Z,10.51
2022-11-07T20:15:16.903Z,10.47
2022-11-07T20:17:43.854Z,10.43
2022-11-07T20:20:13.725Z,10.39
2022-11-07T20:22:46.499Z,10.35
2022-11-07T20:25:13.543Z,10.29
2022-11-07T20:27:41.461Z,10.23
2022-11-07T20:30:10.039Z,10.19
2022-11-07T20:32:46.728Z,10.16
2022-11-07T20:35:19.593Z,10.11
2022-11-07T20:37:59.030Z,10.05
2022-11-07T20:43:55.936Z,9.99
2022-11-07T20:52:39.164Z,9.89
2022-11-07T20:58:43.408Z,9.85
2022-11-07T21:01:41.265Z,9.79
2022-11-07T21:04:15.240Z,9.75
2022-11-07T21:06:51.789Z,9.71
2022-11-07T21:09:41.495Z,9.66
2022-11-07T21:12:17.753Z,9.66
2022-11-07T21:14:53.183Z,9.63
2022-11-07T21:17:32.002Z,9.59
2022-11-07T21:20:11.634Z,9.56
2022-11-07T21:22:38.096Z,9.53
2022-11-07T21:25:05.554Z,9.52
2022-11-07T21:27:36.078Z,9.53
2022-11-07T21:30:06.439Z,9.54
2022-11-07T21:32:34.811Z,9.52
2022-11-07T21:35:01.186Z,9.50
2022-11-07T21:37:27.609Z,9.49
2022-11-07T21:39:53.939Z,9.48
2022-11-07T21:42:20.354Z,9.46
2022-11-07T21:44:46.779Z,9.43
2022-11-07T21:47:13.154Z,9.41
2022-11-07T21:49:39.637Z,9.38
2022-11-07T21:52:05.975Z,9.34
2022-11-07T21:54:32.351Z,9.29
2022-11-07T21:57:00.166Z,9.26
2022-11-07T21:59:26.727Z,9.25
2022-11-07T22:01:54.394Z,9.21
2022-11-07T22:04:21.983Z,9.17
2022-11-07T22:06:48.357Z,9.13
2022-11-07T22:09:17.083Z,9.10
2022-11-07T22:11:44.153Z,9.07
2022-11-07T22:14:14.247Z,9.03
2022-11-07T22:16:40.660Z,9.04
2022-11-07T22:19:12.122Z,9.04
2022-11-07T22:21:39.147Z,9.01
2022-11-07T22:24:05.700Z,8.96
2022-11-07T22:26:32.113Z,8.92
2022-11-07T22:28:58.472Z,8.91
2022-11-07T22:31:28.478Z,8.90
2022-11-07T22:33:56.119Z,8.87
2022-11-07T22:36:23.013Z,8.86
2022-11-07T22:38:50.088Z,8.86
2022-11-07T22:41:19.454Z,8.86
2022-11-07T22:43:46.730Z,8.84
2022-11-07T22:46:16.766Z,8.83
2022-11-07T22:48:44.446Z,8.82
2022-11-07T22:51:14.724Z,8.79
2022-11-07T22:53:41.404Z,8.79
2022-11-07T22:56:15.934Z,8.77
2022-11-07T22:58:43.610Z,8.75
2022-11-07T23:01:29.572Z,8.71
2022-11-07T23:03:57.088Z,8.72
2022-11-07T23:06:25.087Z,8.72
2022-11-07T23:08:52.245Z,8.71
2022-11-07T23:14:11.867Z,8.73
2022-11-07T23:16:47.768Z,8.71
2022-11-07T23:19:15.982Z,8.70
2022-11-07T23:21:42.824Z,8.67
2022-11-07T23:24:09.782Z,8.66
2022-11-07T23:26:36.587Z,8.63
2022-11-07T23:29:10.439Z,8.61
2022-11-07T23:31:39.147Z,8.59
2022-11-07T23:34:05.549Z,8.59
2022-11-07T23:36:31.939Z,8.56
2022-11-07T23:39:06.340Z,8.53
2022-11-07T23:41:33.206Z,8.53
2022-11-07T23:43:59.808Z,8.50
2022-11-07T23:46:44.893Z,8.49
2022-11-07T23:49:30.141Z,8.47
2022-11-07T23:51:56.583Z,8.46
2022-11-07T23:54:41.550Z,8.45
2022-11-07T23:57:07.926Z,8.40
2022-11-07T23:59:54.410Z,8.38
